Time;durP1;ratioP1;P1;durP2;ratioP2;P2;SDS_P1;SDS_P2;PMS_P1;PMS_P2;Temp;Humidity;BMP_temperature;BMP_pressure;BME280_temperature;BME280_humidity;BME280_pressure;Samples;Min_cycle;Max_cycle;Signal;HPM_P1;HPM_P2
2023/03/01 00:00:46;;;;;;;8.00;4.77;;;-1.30;99.90;;;-0.58;100.00;99100.41;5045961;28;20502;-78
2023/03/01 00:03:15;;;;;;;4.97;3.77;;;-1.30;99.90;;;-0.59;100.00;99096.19;5043520;28;20553;-77
2023/03/01 00:05:46;;;;;;;7.63;4.10;;;-1.40;99.90;;;-0.63;100.00;99099.06;5047585;28;20499;-77
2023/03/01 00:08:17;;;;;;;8.23;4.47;;;-1.50;99.90;;;-0.64;100.00;99095.66;5047742;28;20560;-78
2023/03/01 00:10:47;;;;;;;9.63;4.67;;;-1.50;99.90;;;-0.64;100.00;99094.81;5047498;28;21214;-78
2023/03/01 00:13:16;;;;;;;6.57;4.27;;;-1.50;99.90;;;-0.67;100.00;99100.13;5048729;28;20534;-77
2023/03/01 00:15:45;;;;;;;8.80;4.90;;;-1.50;99.90;;;-0.72;100.00;99099.56;5049153;28;20472;-77
2023/03/01 00:18:14;;;;;;;10.00;4.03;;;-1.60;99.90;;;-0.74;100.00;99094.53;5048086;28;20560;-78
2023/03/01 00:20:50;;;;;;;11.37;4.10;;;-1.60;99.90;;;-0.74;100.00;99101.41;5048997;28;20525;-77
2023/03/01 00:23:22;;;;;;;14.53;4.00;;;-1.50;99.90;;;-0.76;100.00;99104.06;5046078;28;20487;-78
2023/03/01 00:25:52;;;;;;;5.80;3.63;;;-1.50;99.90;;;-0.76;100.00;99104.06;5048600;28;20463;-78
2023/03/01 00:28:22;;;;;;;7.30;4.27;;;-1.60;99.90;;;-0.87;100.00;99100.50;5047831;28;20497;-77
2023/03/01 00:30:52;;;;;;;7.47;3.93;;;-1.70;99.90;;;-0.95;100.00;99108.63;5047345;28;20459;-78
2023/03/01 00:33:21;;;;;;;11.57;4.30;;;-1.70;99.90;;;-1.01;100.00;99109.78;5047176;28;20467;-78
2023/03/01 00:35:51;;;;;;;7.40;4.20;;;-1.90;99.90;;;-0.97;100.00;99105.31;5046689;28;20522;-78
2023/03/01 00:38:21;;;;;;;9.03;4.20;;;-1.90;99.90;;;-0.95;100.00;99108.63;5041902;28;21074;-77
2023/03/01 00:40:51;;;;;;;5.37;3.43;;;-1.80;99.90;;;-0.93;100.00;99106.78;5041417;28;20463;-78
2023/03/01 00:43:21;;;;;;;5.63;4.33;;;-1.80;99.90;;;-0.98;100.00;99106.25;5045499;28;20478;-78
2023/03/01 00:45:50;;;;;;;6.17;3.93;;;-1.90;99.90;;;-1.01;100.00;99103.88;5042594;28;20546;-77
2023/03/01 00:48:19;;;;;;;6.17;4.07;;;-1.90;99.90;;;-1.08;100.00;99094.88;5046377;28;20469;-77
2023/03/01 00:50:48;;;;;;;6.03;4.23;;;-2.00;99.90;;;-1.04;100.00;99102.28;5047768;28;20472;-77
2023/03/01 00:53:17;;;;;;;7.13;3.70;;;-1.90;99.90;;;-1.02;100.00;99099.63;5043601;28;20541;-77
2023/03/01 00:55:48;;;;;;;6.23;3.60;;;-1.90;99.90;;;-0.98;100.00;99102.84;5045963;28;20846;-77
2023/03/01 00:58:17;;;;;;;8.63;3.40;;;-1.80;99.90;;;-0.96;100.00;99096.72;5047068;28;20888;-78
2023/03/01 01:00:46;;;;;;;10.10;3.50;;;-1.80;99.90;;;-0.97;100.00;99094.25;5044810;28;20467;-78
2023/03/01 01:03:15;;;;;;;5.20;3.60;;;-1.80;99.90;;;-0.97;100.00;99094.25;5044148;28;20464;-77
2023/03/01 01:05:44;;;;;;;3.70;3.20;;;-1.80;99.90;;;-1.09;100.00;99094.03;5045360;28;20817;-78
2023/03/01 01:08:13;;;;;;;8.27;3.63;;;-2.00;99.90;;;-1.05;100.00;99087.81;5043791;28;21019;-77
2023/03/01 01:10:45;;;;;;;9.67;4.53;;;-1.90;99.90;;;-1.05;100.00;99092.94;5042478;28;21005;-77
2023/03/01 01:13:17;;;;;;;8.27;3.57;;;-1.90;99.90;;;-1.07;100.00;99088.78;5046111;28;21202;-77
2023/03/01 01:15:46;;;;;;;4.83;3.30;;;-1.90;99.90;;;-1.10;100.00;99094.09;5046736;28;20554;-77
2023/03/01 01:18:15;;;;;;;5.67;3.43;;;-2.00;99.90;;;-1.18;100.00;99083.47;5043304;28;20518;-78
2023/03/01 01:20:46;;;;;;;7.10;3.90;;;-2.00;99.90;;;-1.10;100.00;99084.69;5044911;28;20464;-77
2023/03/01 01:23:16;;;;;;;5.80;3.30;;;-1.90;99.90;;;-1.14;100.00;99083.19;5043267;28;20460;-77
2023/03/01 01:25:45;;;;;;;4.03;3.10;;;-1.90;99.90;;;-1.11;100.00;99079.66;5045778;28;20472;-78
2023/03/01 01:28:16;;;;;;;7.67;3.87;;;-2.00;99.90;;;-1.11;100.00;99079.66;5039144;28;21257;-77
2023/03/01 01:30:46;;;;;;;5.87;4.20;;;-1.90;99.90;;;-1.16;100.00;99079.06;5044412;28;20459;-78
2023/03/01 01:33:16;;;;;;;4.40;3.20;;;-1.90;99.90;;;-1.29;100.00;99073.00;5046242;28;20489;-77
2023/03/01 01:35:46;;;;;;;6.90;3.60;;;-2.10;99.90;;;-1.26;100.00;99065.97;5042190;28;20817;-77
2023/03/01 01:38:17;;;;;;;4.67;3.37;;;-2.10;99.90;;;-1.33;100.00;99063.81;5043244;28;20955;-77
2023/03/01 01:40:46;;;;;;;7.33;4.23;;;-2.20;99.90;;;-1.31;100.00;99056.84;5041267;28;20487;-77
2023/03/01 01:43:23;;;;;;;5.30;4.10;;;-2.20;99.90;;;-1.38;100.00;99053.00;5043732;28;20459;-78
2023/03/01 01:45:57;;;;;;;5.80;3.73;;;-2.30;99.90;;;-1.36;100.00;99049.44;5044202;28;20970;-77
2023/03/01 01:48:40;;;;;;;4.87;3.60;;;-2.20;99.90;;;-1.32;100.00;99037.28;5044171;28;20966;-78
2023/03/01 01:51:16;;;;;;;7.00;3.50;;;-2.10;99.90;;;-1.34;100.00;99041.66;5041771;28;20509;-77
2023/03/01 01:53:52;;;;;;;5.70;4.07;;;-2.10;99.90;;;-1.33;100.00;99035.63;5043416;28;20465;-78
2023/03/01 01:56:25;;;;;;;8.90;4.93;;;-2.10;99.90;;;-1.32;100.00;99037.28;5047257;28;20456;-77
2023/03/01 01:58:58;;;;;;;6.20;4.33;;;-2.10;99.90;;;-1.35;100.00;99028.00;5044466;28;20781;-78
2023/03/01 02:01:27;;;;;;;5.30;3.97;;;-2.20;99.90;;;-1.39;100.00;99031.69;5041964;28;20471;-77
2023/03/01 02:03:57;;;;;;;7.90;3.67;;;-2.20;99.90;;;-1.38;100.00;99032.47;5044745;28;20567;-78
2023/03/01 02:06:35;;;;;;;5.60;3.93;;;-2.20;99.90;;;-1.40;100.00;99031.75;5047000;28;20621;-77
2023/03/01 02:09:11;;;;;;;6.83;4.00;;;-2.30;99.90;;;-1.36;100.00;99031.50;5046035;28;20466;-78
2023/03/01 02:11:43;;;;;;;7.37;4.23;;;-2.20;99.90;;;-1.38;100.00;99024.78;5045782;28;20539;-78
2023/03/01 02:14:15;;;;;;;5.80;4.43;;;-2.30;99.90;;;-1.44;100.00;99020.84;5046874;28;20492;-77
2023/03/01 02:16:44;;;;;;;6.37;4.27;;;-2.30;99.90;;;-1.43;100.00;99017.38;5045415;28;20462;-77
2023/03/01 02:19:31;;;;;;;7.67;3.97;;;-2.30;99.90;;;-1.56;100.00;99009.53;5045641;28;21104;-77
2023/03/01 02:22:14;;;;;;;6.30;4.23;;;-2.40;99.90;;;-1.53;100.00;99003.44;5046166;28;20456;-78
2023/03/01 02:25:01;;;;;;;6.10;4.27;;;-2.40;99.90;;;-1.47;100.00;98999.69;5046736;28;20535;-77
2023/03/01 02:27:41;;;;;;;6.97;4.60;;;-2.30;99.90;;;-1.51;100.00;98996.47;5045827;28;20529;-77
2023/03/01 02:30:14;;;;;;;7.20;3.90;;;-2.40;99.90;;;-1.59;100.00;98998.63;5044977;28;20465;-77
2023/03/01 02:32:43;;;;;;;8.50;4.40;;;-2.50;99.90;;;-1.59;100.00;99004.59;5045085;28;20468;-77
2023/03/01 02:35:19;;;;;;;6.97;3.80;;;-2.40;99.90;;;-1.67;100.00;99000.84;5042078;28;20465;-77
2023/03/01 02:37:49;;;;;;;8.57;3.70;;;-2.60;99.90;;;-1.59;100.00;98998.63;5041306;28;21076;-77
2023/03/01 02:40:21;;;;;;;7.10;4.10;;;-2.50;99.90;;;-1.57;100.00;98995.09;5041504;28;20958;-78
2023/03/01 02:42:56;;;;;;;5.83;3.90;;;-2.50;99.90;;;-1.55;100.00;98990.69;5042630;28;20469;-77
2023/03/01 02:45:28;;;;;;;6.40;5.00;;;-2.40;99.90;;;-1.58;100.00;98990.88;5039133;28;20467;-78
2023/03/01 02:47:59;;;;;;;12.50;4.10;;;-2.50;99.90;;;-1.64;100.00;98993.78;5042507;28;20456;-78
2023/03/01 02:51:01;;;;;;;7.70;4.33;;;-2.50;99.90;;;-1.57;100.00;98986.56;5040932;28;20830;-77
2023/03/01 02:53:43;;;;;;;9.30;4.77;;;-2.40;99.90;;;-1.60;100.00;98982.41;5042282;28;21201;-77
2023/03/01 02:56:13;;;;;;;10.20;4.80;;;-2.50;99.90;;;-1.52;100.00;98985.38;5042652;28;21473;-78
2023/03/01 02:58:47;;;;;;;6.03;4.23;;;-2.20;99.90;;;-1.50;100.00;98982.75;5043613;28;20482;-77
2023/03/01 03:01:18;;;;;;;8.37;4.63;;;-2.30;99.90;;;-1.46;100.00;98983.38;5040550;28;20986;-77
2023/03/01 03:03:47;;;;;;;8.60;4.40;;;-2.20;99.90;;;-1.47;100.00;98981.72;5043622;28;20544;-78
2023/03/01 03:06:17;;;;;;;6.80;4.70;;;-2.20;99.90;;;-1.50;100.00;98979.34;5040302;28;20966;-77
2023/03/01 03:08:49;;;;;;;6.30;3.67;;;-2.20;99.90;;;-1.46;100.00;98973.13;5042551;28;20958;-77
2023/03/01 03:11:19;;;;;;;8.43;4.90;;;-2.20;99.90;;;-1.42;100.00;98966.91;5042206;28;21245;-77
2023/03/01 03:13:48;;;;;;;7.30;4.03;;;-2.10;99.90;;;-1.44;100.00;98971.28;5047358;28;20833;-77
2023/03/01 03:16:19;;;;;;;8.03;4.10;;;-2.10;99.90;;;-1.49;100.00;98960.50;5045991;28;20849;-77
2023/03/01 03:18:50;;;;;;;5.27;4.30;;;-2.30;99.90;;;-1.49;100.00;98963.06;5046016;28;21312;-77
2023/03/01 03:21:19;;;;;;;12.73;4.80;;;-2.30;99.90;;;-1.50;100.00;98956.28;5047967;28;20545;-77
2023/03/01 03:23:48;;;;;;;7.23;4.83;;;-2.30;99.90;;;-1.52;100.00;98943.53;5045405;28;20545;-78
2023/03/01 03:26:18;;;;;;;5.87;4.57;;;-2.30;99.90;;;-1.47;100.00;98945.84;5049668;28;20498;-78
2023/03/01 03:28:48;;;;;;;7.23;5.20;;;-2.20;99.90;;;-1.54;100.00;98946.19;5048585;28;20463;-77
2023/03/01 03:31:20;;;;;;;6.80;4.40;;;-2.30;99.90;;;-1.49;100.00;98937.41;5046499;28;20473;-77
2023/03/01 03:33:49;;;;;;;14.30;4.67;;;-2.30;99.90;;;-1.59;100.00;98930.25;5046432;28;20463;-78
2023/03/01 03:36:21;;;;;;;6.17;4.77;;;-2.40;99.90;;;-1.51;100.00;98934.94;5045327;28;20493;-77
2023/03/01 03:38:49;;;;;;;8.13;4.70;;;-2.30;99.90;;;-1.53;100.00;98929.06;5046168;28;20487;-78
2023/03/01 03:41:19;;;;;;;10.87;5.03;;;-2.30;99.90;;;-1.53;100.00;98917.06;5044641;28;20463;-77
2023/03/01 03:43:48;;;;;;;14.73;5.50;;;-2.30;99.90;;;-1.55;100.00;98923.19;5043892;28;20459;-77
2023/03/01 03:46:20;;;;;;;10.83;5.17;;;-2.40;99.90;;;-1.55;100.00;98918.91;5046048;28;20575;-78
2023/03/01 03:48:49;;;;;;;14.70;5.70;;;-2.30;99.90;;;-1.55;100.00;98925.75;5045118;28;20585;-77
2023/03/01 03:51:19;;;;;;;8.47;4.90;;;-2.30;99.90;;;-1.54;100.00;98920.56;5046097;28;20466;-77
2023/03/01 03:53:49;;;;;;;7.33;4.63;;;-2.20;99.90;;;-1.55;100.00;98918.91;5048134;28;20466;-77
2023/03/01 03:56:18;;;;;;;11.03;4.77;;;-2.20;99.90;;;-1.55;100.00;98918.91;5049456;28;20460;-77
2023/03/01 03:58:49;;;;;;;8.73;5.40;;;-2.20;99.90;;;-1.53;100.00;98918.81;5047917;28;20952;-77
2023/03/01 04:01:20;;;;;;;8.00;5.47;;;-2.20;99.90;;;-1.53;100.00;98918.81;5046661;28;20457;-77
2023/03/01 04:03:54;;;;;;;16.13;5.10;;;-2.30;99.90;;;-1.54;100.00;98918.00;5046566;28;20466;-77
2023/03/01 04:06:24;;;;;;;10.67;4.90;;;-2.30;99.90;;;-1.53;100.00;98906.00;5047958;28;20580;-80
2023/03/01 04:08:58;;;;;;;15.70;6.60;;;-2.30;99.90;;;-1.50;100.00;98916.06;5046632;28;20476;-77
2023/03/01 04:11:28;;;;;;;17.57;4.93;;;-2.30;99.90;;;-1.52;100.00;98905.91;5043583;28;20467;-78
2023/03/01 04:14:00;;;;;;;10.93;5.70;;;-2.30;99.90;;;-1.49;100.00;98904.88;5047469;28;20461;-74
2023/03/01 04:16:31;;;;;;;17.20;7.37;;;-2.30;99.90;;;-1.48;100.00;98910.84;5045603;28;20692;-78
2023/03/01 04:19:01;;;;;;;6.37;4.13;;;-2.20;99.90;;;-1.46;100.00;98906.47;5046347;28;21032;-78
2023/03/01 04:21:31;;;;;;;7.23;4.60;;;-2.20;99.90;;;-1.46;100.00;98907.28;5044454;28;20475;-78
2023/03/01 04:24:03;;;;;;;7.33;4.27;;;-2.20;99.90;;;-1.43;100.00;98901.16;5043160;28;20537;-79
2023/03/01 04:26:32;;;;;;;9.90;5.60;;;-2.20;99.90;;;-1.40;100.00;98898.41;5043569;28;26058;-78
2023/03/01 04:29:03;;;;;;;10.80;4.70;;;-2.10;99.90;;;-1.38;100.00;98896.56;5043911;28;20472;-78
2023/03/01 04:31:34;;;;;;;8.40;4.50;;;-2.10;99.90;;;-1.40;100.00;98894.09;5048016;28;20461;-78
2023/03/01 04:34:04;;;;;;;7.57;5.40;;;-2.10;99.90;;;-1.36;100.00;98889.59;5048892;28;20465;-79
2023/03/01 04:36:37;;;;;;;8.00;5.53;;;-2.10;99.90;;;-1.35;100.00;98897.19;5048656;28;20460;-78
2023/03/01 04:39:11;;;;;;;12.80;5.50;;;-2.10;99.90;;;-1.36;100.00;98893.00;5047796;28;21036;-79
2023/03/01 04:41:45;;;;;;;9.30;5.00;;;-2.10;99.90;;;-1.33;100.00;98887.69;5042055;28;20471;-79
2023/03/01 04:44:14;;;;;;;8.13;5.47;;;-2.10;99.90;;;-1.28;100.00;98895.09;5042946;28;20534;-78
2023/03/01 04:46:45;;;;;;;9.50;5.87;;;-2.00;99.90;;;-1.28;100.00;98900.22;5042903;28;20467;-78
2023/03/01 04:49:15;;;;;;;19.00;9.43;;;-2.00;99.90;;;-1.26;100.00;98895.84;5045283;28;20523;-81
2023/03/01 04:51:44;;;;;;;13.60;7.80;;;-2.00;99.90;;;-1.24;100.00;98902.50;5044280;28;21810;-78
2023/03/01 04:54:15;;;;;;;10.13;5.27;;;-2.00;99.90;;;-1.22;100.00;98899.88;5047449;28;21425;-78
2023/03/01 04:56:45;;;;;;;14.37;5.93;;;-1.90;99.90;;;-1.19;100.00;98902.25;5048016;28;20464;-78
2023/03/01 04:59:14;;;;;;;11.17;5.17;;;-1.90;99.90;;;-1.17;100.00;98900.41;5047419;28;20464;-78
2023/03/01 05:01:45;;;;;;;7.40;5.60;;;-1.80;99.90;;;-1.16;100.00;98897.75;5047314;28;20543;-78
2023/03/01 05:04:15;;;;;;;9.20;4.93;;;-1.80;99.90;;;-1.15;100.00;98898.59;5045468;28;20545;-78
2023/03/01 05:06:44;;;;;;;15.60;6.00;;;-1.70;99.90;;;-1.15;100.00;98903.72;5045664;28;20474;-78
2023/03/01 05:09:15;;;;;;;9.50;5.40;;;-1.70;99.90;;;-1.17;100.00;98908.09;5044272;28;20512;-78
2023/03/01 05:11:45;;;;;;;11.73;5.57;;;-1.70;99.90;;;-1.12;100.00;98911.22;5047172;28;20954;-78
2023/03/01 05:14:15;;;;;;;13.80;5.30;;;-1.70;99.90;;;-1.13;100.00;98904.44;5046845;28;20471;-78
2023/03/01 05:16:46;;;;;;;11.70;6.60;;;-1.70;99.90;;;-1.10;100.00;98910.19;5048557;28;20507;-79
2023/03/01 05:19:16;;;;;;;11.53;6.10;;;-1.70;99.90;;;-1.10;100.00;98905.06;5041768;28;20542;-78
2023/03/01 05:22:04;;;;;;;23.90;7.63;;;-1.70;99.90;;;-1.09;100.00;98895.63;5044127;28;20466;-75
2023/03/01 05:24:36;;;;;;;19.70;8.73;;;-1.70;99.90;;;-1.12;100.00;98895.81;5042371;28;20819;-78
2023/03/01 05:27:07;;;;;;;14.33;6.83;;;-1.80;99.90;;;-1.11;100.00;98892.34;5040934;28;20459;-78
2023/03/01 05:29:39;;;;;;;12.67;7.60;;;-1.80;99.90;;;-1.09;100.00;98893.06;5044195;28;20473;-74
2023/03/01 05:32:15;;;;;;;14.87;6.90;;;-1.70;99.90;;;-1.13;100.00;98889.88;5044239;28;20467;-78
2023/03/01 05:34:46;;;;;;;13.43;6.95;;;-1.70;99.90;;;-1.16;100.00;98884.09;5039780;28;20549;-77
2023/03/01 05:37:17;;;;;;;16.03;6.57;;;-1.80;99.90;;;-1.09;100.00;98895.63;5046343;28;20230;-78
2023/03/01 05:39:46;;;;;;;6.37;5.10;;;-1.80;99.90;;;-1.08;100.00;98887.03;5048070;28;20987;-77
2023/03/01 05:42:18;;;;;;;14.13;6.03;;;-1.70;99.90;;;-1.09;100.00;98882.81;5047802;28;20492;-77
2023/03/01 05:44:48;;;;;;;7.83;4.83;;;-1.80;99.90;;;-1.09;100.00;98880.25;5049488;28;20486;-77
2023/03/01 05:47:21;;;;;;;8.60;5.00;;;-1.80;99.90;;;-1.13;100.00;98871.06;5044613;28;20464;-78
2023/03/01 05:49:50;;;;;;;10.10;6.13;;;-1.80;99.90;;;-1.08;100.00;98877.56;5047053;28;20473;-78
2023/03/01 05:52:19;;;;;;;9.10;4.83;;;-1.70;99.90;;;-1.10;100.00;98883.72;5048400;28;20463;-77
2023/03/01 05:54:48;;;;;;;12.57;5.50;;;-1.70;99.90;;;-1.12;100.00;98886.38;5048086;28;21030;-77
2023/03/01 05:57:18;;;;;;;13.43;5.90;;;-1.80;99.90;;;-1.10;100.00;98881.16;5048019;28;20457;-77
2023/03/01 05:59:47;;;;;;;8.43;6.13;;;-1.80;99.90;;;-1.13;100.00;98878.78;5046635;28;20535;-78
2023/03/01 06:02:20;;;;;;;10.33;6.20;;;-1.80;99.90;;;-1.12;100.00;98886.38;5047311;28;20973;-78
2023/03/01 06:04:50;;;;;;;11.57;6.50;;;-1.90;99.90;;;-1.13;100.00;98881.34;5048268;28;20541;-78
2023/03/01 06:07:19;;;;;;;10.60;5.93;;;-1.90;99.90;;;-1.09;100.00;98880.25;5047690;28;20492;-78
2023/03/01 06:09:49;;;;;;;10.60;6.20;;;-1.80;99.90;;;-1.10;100.00;98884.53;5046664;28;20905;-77
2023/03/01 06:12:19;;;;;;;8.67;5.57;;;-1.80;99.90;;;-1.12;100.00;98881.25;5046705;28;20475;-78
2023/03/01 06:14:49;;;;;;;7.83;5.93;;;-1.80;99.90;;;-1.13;100.00;98883.91;5047092;28;20509;-78
2023/03/01 06:17:20;;;;;;;10.73;6.37;;;-1.80;99.90;;;-1.13;100.00;98886.47;5047210;28;20812;-77
2023/03/01 06:19:50;;;;;;;12.20;6.30;;;-1.90;99.90;;;-1.17;100.00;98888.41;5047779;28;20491;-78
2023/03/01 06:22:20;;;;;;;11.50;6.90;;;-1.90;99.90;;;-1.15;100.00;98891.72;5047789;28;20895;-78
2023/03/01 06:24:49;;;;;;;19.53;7.17;;;-1.80;99.90;;;-1.17;100.00;98888.41;5047226;28;20519;-77
2023/03/01 06:27:20;;;;;;;13.20;7.30;;;-1.90;99.90;;;-1.12;100.00;98890.69;5046939;28;20471;-78
2023/03/01 06:29:49;;;;;;;10.97;7.07;;;-1.70;99.90;;;-1.14;100.00;98890.78;5046995;28;20457;-78
2023/03/01 06:32:19;;;;;;;12.83;6.40;;;-1.80;99.90;;;-1.10;100.00;98888.84;5047962;28;20569;-77
2023/03/01 06:34:49;;;;;;;11.73;6.27;;;-1.80;99.90;;;-1.08;100.00;98882.69;5047629;28;20465;-77
2023/03/01 06:37:18;;;;;;;8.97;6.33;;;-1.80;99.90;;;-1.05;100.00;98884.28;5048179;28;20502;-78
2023/03/01 06:39:47;;;;;;;12.43;6.90;;;-1.80;99.90;;;-1.05;100.00;98881.72;5046560;28;20464;-77
2023/03/01 06:42:16;;;;;;;16.90;6.30;;;-1.70;99.90;;;-1.03;100.00;98885.00;5046964;28;20576;-77
2023/03/01 06:44:46;;;;;;;11.53;6.77;;;-1.70;99.90;;;-1.04;100.00;98879.03;5047993;28;20463;-77
2023/03/01 06:47:16;;;;;;;15.77;7.27;;;-1.70;99.90;;;-1.02;100.00;98879.78;5047511;28;20465;-77
2023/03/01 06:49:48;;;;;;;13.63;6.80;;;-1.60;99.90;;;-0.99;100.00;98873.63;5046463;28;20467;-77
2023/03/01 06:52:17;;;;;;;16.10;7.40;;;-1.70;99.90;;;-0.95;100.00;98867.38;5048561;28;20550;-77
2023/03/01 06:54:46;;;;;;;16.43;7.23;;;-1.60;99.90;;;-0.95;100.00;98869.94;5046970;28;20880;-77
2023/03/01 06:57:17;;;;;;;10.30;6.47;;;-1.60;99.90;;;-0.92;100.00;98863.78;5046968;28;20465;-77
2023/03/01 06:59:48;;;;;;;13.17;6.50;;;-1.60;99.90;;;-0.89;100.00;98859.28;5046924;28;20972;-77
2023/03/01 07:02:20;;;;;;;23.77;7.47;;;-1.60;99.90;;;-0.87;100.00;98856.66;5046423;28;20499;-77
2023/03/01 07:04:52;;;;;;;12.90;6.80;;;-1.60;99.90;;;-0.89;100.00;98855.91;5045171;28;20469;-77
2023/03/01 07:07:22;;;;;;;12.83;6.53;;;-1.50;99.90;;;-0.88;100.00;98863.53;5044430;28;21400;-77
2023/03/01 07:09:53;;;;;;;12.10;7.10;;;-1.60;99.90;;;-0.84;100.00;98857.28;5045290;28;20467;-77
2023/03/01 07:12:23;;;;;;;12.43;7.47;;;-1.50;99.90;;;-0.81;100.00;98869.91;5045051;28;20473;-77
2023/03/01 07:14:53;;;;;;;13.20;6.73;;;-1.50;99.90;;;-0.77;100.00;98870.56;5045878;28;20465;-78
2023/03/01 07:17:23;;;;;;;13.40;7.70;;;-1.40;99.90;;;-0.74;100.00;98871.19;5045007;28;20464;-77
2023/03/01 07:19:54;;;;;;;12.20;6.60;;;-1.40;99.90;;;-0.70;100.00;98867.50;5044678;28;21017;-77
2023/03/01 07:22:25;;;;;;;15.07;7.77;;;-1.40;99.90;;;-0.68;100.00;98875.94;5044308;28;21117;-77
2023/03/01 07:24:56;;;;;;;15.47;7.83;;;-1.30;99.90;;;-0.64;100.00;98876.56;5044978;28;20475;-77
2023/03/01 07:27:25;;;;;;;11.20;7.13;;;-1.20;99.90;;;-0.63;100.00;98868.78;5044705;28;20473;-77
2023/03/01 07:29:54;;;;;;;16.03;6.97;;;-1.30;99.90;;;-0.59;100.00;98869.41;5044327;28;20594;-77
2023/03/01 07:32:24;;;;;;;13.07;6.77;;;-1.20;99.90;;;-0.57;100.00;98865.81;5047792;28;21432;-77
2023/03/01 07:34:56;;;;;;;16.17;7.83;;;-1.20;99.90;;;-0.56;100.00;98864.06;5045785;28;20468;-77
2023/03/01 07:37:25;;;;;;;12.57;7.50;;;-1.20;99.90;;;-0.54;100.00;98868.19;5047636;28;20469;-77
2023/03/01 07:39:54;;;;;;;24.23;8.07;;;-1.10;99.90;;;-0.51;100.00;98862.03;5045783;28;20514;-77
2023/03/01 07:42:24;;;;;;;11.20;7.00;;;-1.10;99.90;;;-0.49;100.00;98864.50;5046109;28;20499;-77
2023/03/01 07:44:54;;;;;;;12.37;6.50;;;-1.10;99.90;;;-0.48;100.00;98858.41;5047495;28;20916;-77
2023/03/01 07:47:24;;;;;;;13.23;7.40;;;-1.00;99.90;;;-0.47;100.00;98857.50;5047063;28;20453;-77
2023/03/01 07:49:56;;;;;;;11.80;7.17;;;-1.00;99.90;;;-0.46;100.00;98859.16;5046996;28;20457;-77
2023/03/01 07:52:26;;;;;;;11.67;7.00;;;-1.10;99.90;;;-0.44;100.00;98857.31;5045983;28;20568;-77
2023/03/01 07:54:56;;;;;;;14.57;7.93;;;-1.00;99.90;;;-0.46;100.00;98859.16;5047587;28;20530;-77
2023/03/01 07:57:26;;;;;;;13.23;7.07;;;-1.00;99.90;;;-0.40;100.00;98857.03;5046991;28;20468;-77
2023/03/01 07:59:57;;;;;;;12.90;8.07;;;-0.90;99.90;;;-0.37;100.00;98859.38;5049517;28;20567;-77
2023/03/01 08:02:28;;;;;;;18.77;8.40;;;-0.90;99.90;;;-0.38;100.00;98860.31;5048874;28;20495;-77
2023/03/01 08:05:00;;;;;;;13.20;7.70;;;-0.90;99.90;;;-0.33;100.00;98860.03;5050368;28;20471;-77
2023/03/01 08:07:29;;;;;;;13.30;8.07;;;-0.90;99.90;;;-0.32;100.00;98851.41;5050054;28;20461;-77
2023/03/01 08:09:59;;;;;;;11.93;8.10;;;-0.80;99.90;;;-0.30;100.00;98859.81;5047792;28;20596;-77
2023/03/01 08:12:28;;;;;;;14.63;7.23;;;-0.80;99.90;;;-0.29;100.00;98841.75;5049154;28;20464;-77
2023/03/01 08:14:57;;;;;;;12.13;7.30;;;-0.90;99.90;;;-0.24;100.00;98841.44;5049327;28;20512;-77
2023/03/01 08:17:27;;;;;;;15.83;8.57;;;-0.80;99.90;;;-0.20;100.00;98837.75;5050663;28;20596;-77
2023/03/01 08:19:59;;;;;;;18.47;7.60;;;-0.70;99.90;;;-0.15;100.00;98838.28;5050181;28;20550;-78
2023/03/01 08:22:29;;;;;;;15.50;7.67;;;-0.70;99.90;;;-0.09;100.00;98835.28;5050153;28;20491;-77
2023/03/01 08:24:59;;;;;;;12.87;7.20;;;-0.70;99.90;;;-0.03;100.00;98827.16;5050124;28;20457;-77
2023/03/01 08:27:29;;;;;;;16.07;7.77;;;-0.60;99.90;;;0.04;100.00;98825.00;5050595;28;20456;-77
2023/03/01 08:29:58;;;;;;;16.37;8.17;;;-0.60;99.90;;;0.12;100.00;98826.16;5049375;28;20469;-77
2023/03/01 08:32:28;;;;;;;11.47;7.10;;;-0.50;99.90;;;0.16;100.00;98826.78;5049604;28;20456;-77
2023/03/01 08:34:58;;;;;;;11.87;6.77;;;-0.40;99.90;;;0.23;100.00;98818.56;5050233;28;20535;-77
2023/03/01 08:37:30;;;;;;;11.07;7.20;;;-0.20;99.90;;;0.31;100.00;98820.63;5048149;28;20521;-77
2023/03/01 08:40:00;;;;;;;14.10;7.93;;;-0.20;99.90;;;0.36;100.00;98823.69;5049790;28;20504;-77
2023/03/01 08:42:31;;;;;;;18.33;8.40;;;-0.20;99.90;;;0.45;100.00;98813.59;5049924;28;20563;-77
2023/03/01 08:45:01;;;;;;;16.70;8.70;;;-0.10;99.90;;;0.56;100.00;98817.16;5050322;28;20530;-77
2023/03/01 08:47:33;;;;;;;17.17;7.80;;;0.00;99.90;;;0.65;100.00;98811.41;5050421;28;20494;-77
2023/03/01 08:50:06;;;;;;;13.93;7.40;;;0.10;99.90;;;0.75;100.00;98815.00;5047854;28;20557;-77
2023/03/01 08:52:37;;;;;;;15.50;8.00;;;0.30;99.90;;;0.83;100.00;98799.84;5048783;28;20971;-77
2023/03/01 08:55:10;;;;;;;11.63;7.17;;;0.30;99.90;;;0.94;100.00;98815.34;5047563;28;21030;-77
2023/03/01 08:57:40;;;;;;;12.77;7.40;;;0.50;99.90;;;1.03;100.00;98814.72;5050103;28;20532;-77
2023/03/01 09:00:14;;;;;;;17.60;8.10;;;0.50;99.90;;;1.12;100.00;98808.88;5048762;28;20822;-77
2023/03/01 09:02:44;;;;;;;12.97;6.80;;;0.60;99.90;;;1.23;100.00;98811.53;5047822;28;20570;-77
2023/03/01 09:05:16;;;;;;;13.17;7.20;;;0.80;99.90;;;1.30;100.00;98807.59;5047888;28;20457;-77
2023/03/01 09:07:48;;;;;;;13.53;7.63;;;0.80;99.90;;;1.36;100.00;98798.56;5049498;28;20468;-77
2023/03/01 09:10:19;;;;;;;9.30;6.10;;;0.90;99.90;;;1.45;100.00;98792.78;5047446;28;20492;-77
2023/03/01 09:12:48;;;;;;;17.60;8.27;;;1.00;99.90;;;1.53;100.00;98793.84;5049251;28;21007;-77
2023/03/01 09:15:19;;;;;;;14.73;6.70;;;1.20;99.90;;;1.56;100.00;98799.72;5047085;28;20462;-77
2023/03/01 09:17:49;;;;;;;14.47;7.83;;;1.20;99.90;;;1.59;100.00;98794.34;5048699;28;20546;-77
2023/03/01 09:20:19;;;;;;;13.63;7.20;;;1.10;99.90;;;1.63;100.00;98790.63;5048005;28;20460;-77
2023/03/01 09:22:49;;;;;;;19.13;9.27;;;1.20;99.90;;;1.63;100.00;98775.97;5048363;28;21062;-77
2023/03/01 09:25:19;;;;;;;10.33;6.83;;;1.20;99.90;;;1.70;100.00;98781.50;5048042;28;20994;-77
2023/03/01 09:27:52;;;;;;;13.30;7.20;;;1.30;99.90;;;1.72;100.00;98771.88;5049097;28;20466;-77
2023/03/01 09:30:24;;;;;;;13.10;6.47;;;1.30;99.90;;;1.76;100.00;98775.88;5048571;28;20503;-77
2023/03/01 09:32:54;;;;;;;20.07;8.37;;;1.40;99.90;;;1.77;100.00;98759.50;5046269;28;20551;-77
2023/03/01 09:35:25;;;;;;;15.13;7.30;;;1.30;99.90;;;1.82;100.00;98768.50;5048254;28;20492;-77
2023/03/01 09:37:55;;;;;;;14.63;8.37;;;1.40;99.90;;;1.82;100.00;98770.25;5048473;28;20477;-77
2023/03/01 09:40:29;;;;;;;15.10;7.87;;;1.30;99.90;;;1.88;100.00;98774.94;5047586;28;20815;-77
2023/03/01 09:43:15;;;;;;;12.03;6.90;;;1.30;99.90;;;1.91;100.00;98769.56;5048855;28;20499;-77
2023/03/01 09:45:50;;;;;;;16.13;8.27;;;1.30;99.90;;;1.93;100.00;98770.28;5048130;28;20493;-77
2023/03/01 09:48:27;;;;;;;14.77;7.13;;;1.30;99.90;;;1.96;100.00;98757.16;5048410;28;20561;-77
2023/03/01 09:51:00;;;;;;;15.10;8.13;;;1.30;99.90;;;2.02;100.00;98760.09;5048154;28;20461;-77
2023/03/01 09:53:35;;;;;;;19.47;7.67;;;1.50;99.90;;;2.03;100.00;98751.44;5046272;28;20548;-77
2023/03/01 09:56:18;;;;;;;14.87;6.80;;;1.50;99.90;;;2.06;100.00;98752.94;5048315;28;20461;-77
2023/03/01 09:59:00;;;;;;;18.27;9.43;;;1.40;99.90;;;2.12;100.00;98752.47;5048117;28;20957;-77
2023/03/01 10:01:36;;;;;;;17.00;7.20;;;1.60;99.90;;;2.19;100.00;98761.38;5047529;28;20904;-77
2023/03/01 10:04:29;;;;;;;19.33;9.60;;;1.80;99.90;;;2.21;100.00;98754.38;5046934;28;20489;-77
2023/03/01 10:07:22;;;;;;;21.73;6.80;;;1.80;99.90;;;2.22;100.00;98745.69;5046671;28;20554;-77
2023/03/01 10:09:51;;;;;;;13.73;7.00;;;1.60;99.90;;;2.27;100.00;98755.66;5047881;28;20510;-77
2023/03/01 10:12:27;;;;;;;18.20;8.73;;;1.70;99.90;;;2.30;100.00;98747.66;5046498;28;20829;-77
2023/03/01 10:15:06;;;;;;;17.93;7.83;;;1.80;99.90;;;2.34;100.00;98744.75;5047803;28;20561;-77
2023/03/01 10:17:42;;;;;;;15.97;7.97;;;1.90;99.90;;;2.37;100.00;98739.34;5048079;28;20486;-77
2023/03/01 10:20:24;;;;;;;11.63;6.60;;;1.80;99.90;;;2.44;100.00;98755.19;5047325;28;20563;-77
2023/03/01 10:22:55;;;;;;;12.87;7.30;;;1.90;99.90;;;2.46;100.00;98743.00;5048353;28;20602;-77
2023/03/01 10:25:44;;;;;;;19.67;9.73;;;1.90;99.90;;;2.51;100.00;98743.44;5047708;28;20475;-77
2023/03/01 10:28:21;;;;;;;13.77;8.83;;;2.00;99.90;;;2.54;100.00;98744.03;5045898;28;20464;-77